Time;durP1;ratioP1;P1;durP2;ratioP2;P2;SDS_P1;SDS_P2;PMS_P1;PMS_P2;Temp;Humidity;BMP_temperature;BMP_pressure;BME280_temperature;BME280_humidity;BME280_pressure;Samples;Min_cycle;Max_cycle;Signal;HPM_P1;HPM_P2
2023/05/11 00:01:23;;;;;;;2.17;1.33;;;;;;;14.79;74.07;100815.09;5231056;28;20047;-85
2023/05/11 00:04:14;;;;;;;2.97;1.75;;;;;;;14.80;73.88;100819.41;5228203;28;22084;-86
2023/05/11 00:07:05;;;;;;;1.33;1.23;;;;;;;14.82;73.03;100822.03;5214480;28;20121;-86
2023/05/11 00:09:55;;;;;;;1.58;1.27;;;;;;;14.84;73.41;100821.03;5202975;28;20033;-85
2023/05/11 00:12:46;;;;;;;2.10;1.38;;;;;;;14.69;75.00;100830.44;5185316;28;20045;-85
2023/05/11 00:15:37;;;;;;;1.30;1.20;;;;;;;14.64;73.87;100833.25;5205759;28;20051;-85
2023/05/11 00:18:28;;;;;;;2.08;1.67;;;;;;;14.67;75.58;100834.09;5205062;28;20045;-85
2023/05/11 00:21:19;;;;;;;2.20;1.55;;;;;;;14.74;73.03;100839.06;5214245;28;20041;-85
2023/05/11 00:24:10;;;;;;;0.88;0.70;;;;;;;14.66;73.77;100830.59;5210375;28;20039;-86
2023/05/11 00:27:01;;;;;;;2.33;2.10;;;;;;;14.70;74.61;100832.19;5215076;28;20132;-85
2023/05/11 00:29:52;;;;;;;0.85;0.80;;;;;;;14.67;73.92;100832.28;5216094;28;20051;-84
2023/05/11 00:32:43;;;;;;;15.98;1.25;;;;;;;14.56;74.93;100834.50;5225794;28;20037;-85
2023/05/11 00:35:34;;;;;;;1.35;1.13;;;;;;;14.59;73.67;100837.88;5220136;28;20047;-85
2023/05/11 00:38:25;;;;;;;3.75;1.02;;;;;;;14.63;74.03;100838.63;5243636;28;20060;-86
2023/05/11 00:41:16;;;;;;;1.95;1.25;;;;;;;14.56;75.82;100834.50;5241978;28;20040;-86
2023/05/11 00:44:07;;;;;;;1.10;1.10;;;;;;;14.52;75.38;100832.91;5231088;28;20028;-86
2023/05/11 00:46:58;;;;;;;1.58;1.48;;;;;;;14.56;75.04;100839.78;5231541;28;20232;-86
2023/05/11 00:49:51;;;;;;;2.53;1.73;;;;;;;14.54;74.18;100831.94;5241794;28;20071;-85
2023/05/11 00:52:42;;;;;;;1.20;0.63;;;;;;;14.49;74.30;100836.53;5234262;28;20197;-85
2023/05/11 00:55:33;;;;;;;1.23;1.17;;;;;;;14.52;74.80;100840.84;5221358;28;20291;-85
2023/05/11 00:58:24;;;;;;;1.48;1.35;;;;;;;14.43;76.58;100834.16;5223369;28;20672;-85
2023/05/11 01:01:17;;;;;;;1.23;1.15;;;;;;;14.47;75.91;100838.38;5225536;28;20047;-86
2023/05/11 01:04:08;;;;;;;0.93;0.88;;;;;;;14.45;75.60;100848.16;5216000;28;20033;-85
2023/05/11 01:07:09;;;;;;;0.63;0.63;;;;;;;14.45;74.91;100838.44;5219345;28;20064;-87
2023/05/11 01:10:20;;;;;;;1.30;1.25;;;;;;;14.33;76.37;100838.97;5218247;28;20041;-86
2023/05/11 01:13:29;;;;;;;0.90;0.90;;;;;;;14.37;75.05;100837.91;5210572;28;20538;-87
2023/05/11 01:16:23;;;;;;;1.40;1.30;;;;;;;14.48;73.81;100842.75;5203320;28;20128;-86
2023/05/11 01:19:36;;;;;;;8.50;1.75;;;;;;;14.52;73.17;100832.91;5215910;28;20346;-87
2023/05/11 01:22:43;;;;;;;2.72;1.67;;;;;;;14.50;74.33;100834.78;5217468;28;20589;-86
2023/05/11 01:25:56;;;;;;;1.73;1.63;;;;;;;14.55;73.33;100832.78;5182830;28;20040;-85
2023/05/11 01:29:11;;;;;;;1.13;1.13;;;;;;;14.53;73.52;100824.94;5216342;28;20085;-85
2023/05/11 01:32:09;;;;;;;0.95;0.93;;;;;;;13.76;79.58;100818.31;5215069;28;20048;-85
2023/05/11 01:35:09;;;;;;;1.45;1.27;;;;;;;13.59;80.32;100815.50;5204146;28;20087;-85
2023/05/11 01:38:03;;;;;;;1.80;1.15;;;;;;;13.10;83.84;100803.19;5216219;28;20040;-85
2023/05/11 01:40:57;;;;;;;1.25;1.02;;;;;;;13.18;83.34;100808.19;5204069;28;20033;-85
2023/05/11 01:43:54;;;;;;;0.95;0.95;;;;;;;12.78;85.71;100802.56;5206986;28;20740;-85
2023/05/11 01:46:46;;;;;;;0.85;0.85;;;;;;;12.88;85.75;100788.16;5217802;28;20041;-86
2023/05/11 01:49:41;;;;;;;2.05;1.75;;;;;;;12.83;85.51;100784.84;5215625;28;20569;-85
2023/05/11 01:52:35;;;;;;;1.20;1.10;;;;;;;13.05;84.01;100784.06;5201623;28;20037;-85
2023/05/11 01:55:27;;;;;;;0.95;0.95;;;;;;;13.17;83.30;100786.25;5195993;28;20699;-86
2023/05/11 01:58:19;;;;;;;0.90;0.90;;;;;;;13.52;78.79;100789.34;5200139;28;20124;-85
2023/05/11 02:01:11;;;;;;;3.95;2.35;;;;;;;13.65;77.10;100796.81;5193875;28;20257;-86
2023/05/11 02:04:04;;;;;;;1.60;1.50;;;;;;;13.71;77.02;100793.09;5184345;28;20522;-86
2023/05/11 02:06:58;;;;;;;4.35;1.83;;;;;;;13.45;81.10;100798.41;5219169;28;20175;-86
2023/05/11 02:09:50;;;;;;;0.80;0.80;;;;;;;13.53;79.26;100806.91;5196382;28;20029;-86
2023/05/11 02:12:43;;;;;;;0.93;0.93;;;;;;;13.52;80.81;100810.44;5214640;28;20044;-86
2023/05/11 02:15:38;;;;;;;1.07;1.07;;;;;;;13.68;78.90;100810.72;5203292;28;20043;-85
2023/05/11 02:18:30;;;;;;;0.75;0.75;;;;;;;13.57;80.55;100814.69;5217137;28;20144;-85
2023/05/11 02:21:22;;;;;;;1.15;1.15;;;;;;;13.63;79.25;100798.63;5212546;28;20072;-84
2023/05/11 02:24:14;;;;;;;1.10;1.00;;;;;;;13.56;80.33;100805.06;5192705;28;20029;-86
2023/05/11 02:27:05;;;;;;;0.95;0.95;;;;;;;13.58;79.92;100803.25;5181496;28;20041;-86
2023/05/11 02:29:56;;;;;;;0.93;0.93;;;;;;;13.50;81.40;100811.44;5194923;28;20052;-84
2023/05/11 02:32:52;;;;;;;1.23;1.13;;;;;;;13.68;78.44;100808.09;5181566;28;20037;-85
2023/05/11 02:35:45;;;;;;;0.98;0.98;;;;;;;13.74;77.47;100814.03;5209696;28;20123;-84
2023/05/11 02:38:38;;;;;;;2.25;1.88;;;;;;;13.79;77.87;100815.59;5232221;28;20036;-85
2023/05/11 02:41:30;;;;;;;1.40;1.30;;;;;;;13.60;79.84;100822.47;5210753;28;20044;-86
2023/05/11 02:44:26;;;;;;;1.52;1.42;;;;;;;13.60;79.29;100811.94;5209267;28;20020;-86
2023/05/11 02:47:19;;;;;;;1.48;1.38;;;;;;;13.60;79.90;100817.19;5219689;28;20041;-86
2023/05/11 02:50:11;;;;;;;1.93;1.77;;;;;;;13.61;80.12;100817.16;5211759;28;20515;-84
2023/05/11 02:53:06;;;;;;;1.27;1.17;;;;;;;13.61;79.68;100832.09;5230072;28;20052;-85
2023/05/11 02:55:57;;;;;;;2.00;1.90;;;;;;;13.80;77.61;100829.66;5224612;28;20045;-86
2023/05/11 02:58:48;;;;;;;1.95;1.85;;;;;;;13.77;77.21;100833.22;5221061;28;20044;-85
2023/05/11 03:01:39;;;;;;;0.40;0.40;;;;;;;13.66;78.71;100832.81;5213815;28;20041;-84
2023/05/11 03:04:30;;;;;;;1.63;1.52;;;;;;;13.71;77.87;100827.34;5197079;28;20029;-86
2023/05/11 03:07:21;;;;;;;2.10;1.05;;;;;;;13.76;76.82;100828.88;5219615;28;20061;-85
2023/05/11 03:10:13;;;;;;;1.02;0.57;;;;;;;13.79;76.71;100831.41;5198152;28;20055;-86
2023/05/11 03:13:04;;;;;;;1.52;1.42;;;;;;;13.87;75.71;100830.25;5219067;28;20076;-85
2023/05/11 03:15:56;;;;;;;2.92;1.58;;;;;;;13.89;75.52;100833.69;5216550;28;20052;-85
2023/05/11 03:18:48;;;;;;;1.08;1.05;;;;;;;13.91;75.19;100824.78;5213893;28;20037;-85
2023/05/11 03:21:39;;;;;;;1.00;1.00;;;;;;;13.93;74.77;100824.72;5215967;28;20443;-84
2023/05/11 03:24:31;;;;;;;1.42;1.40;;;;;;;13.96;74.86;100827.25;5229950;28;20100;-84
2023/05/11 03:27:28;;;;;;;0.65;0.65;;;;;;;13.87;75.06;100819.69;5218168;28;20757;-86
2023/05/11 03:30:19;;;;;;;0.98;0.98;;;;;;;13.84;75.55;100825.94;5203999;28;20455;-85
2023/05/11 03:33:10;;;;;;;2.20;2.03;;;;;;;13.83;75.48;100825.09;5211100;28;20030;-85
2023/05/11 03:36:03;;;;;;;2.13;1.98;;;;;;;13.84;75.07;100818.88;5210036;28;20558;-86
2023/05/11 03:38:56;;;;;;;0.83;0.83;;;;;;;13.84;75.29;100815.41;5234575;28;20745;-85
2023/05/11 03:41:49;;;;;;;1.25;1.25;;;;;;;13.84;75.31;100818.88;5237454;28;20113;-84
2023/05/11 03:44:42;;;;;;;0.87;0.87;;;;;;;13.87;74.69;100820.56;5227861;28;20025;-85
2023/05/11 03:47:34;;;;;;;1.50;1.40;;;;;;;13.88;74.71;100822.28;5232184;28;20075;-85
2023/05/11 03:50:26;;;;;;;1.55;1.45;;;;;;;13.87;75.00;100814.41;5252383;28;20188;-85
2023/05/11 03:53:17;;;;;;;0.80;0.80;;;;;;;13.85;76.02;100817.97;5229948;28;20048;-87
2023/05/11 03:56:08;;;;;;;1.23;1.23;;;;;;;13.81;75.90;100819.03;5208476;28;20256;-87
2023/05/11 03:58:59;;;;;;;1.60;1.50;;;;;;;13.80;75.96;100814.66;5221128;28;20246;-87
2023/05/11 04:01:52;;;;;;;2.25;2.05;;;;;;;13.78;76.20;100820.94;5197778;28;20219;-86
2023/05/11 04:04:42;;;;;;;1.85;1.60;;;;;;;13.79;77.54;100820.00;5221618;28;20092;-86
2023/05/11 04:07:36;;;;;;;1.10;0.95;;;;;;;13.71;77.72;100819.44;5201146;28;20025;-86
2023/05/11 04:10:26;;;;;;;1.40;1.33;;;;;;;13.48;81.01;100816.78;5212740;28;20099;-86
2023/05/11 04:13:17;;;;;;;4.20;2.47;;;;;;;13.46;80.40;100821.22;5211898;28;20052;-86
2023/05/11 04:16:08;;;;;;;2.90;1.30;;;;;;;13.63;77.69;100815.34;5214230;28;20044;-86
2023/05/11 04:18:59;;;;;;;2.03;1.70;;;;;;;13.60;78.61;100818.06;5198491;28;20041;-83
2023/05/11 04:21:49;;;;;;;1.83;1.58;;;;;;;13.74;76.78;100822.81;5201912;28;20464;-84
2023/05/11 04:24:40;;;;;;;1.50;1.40;;;;;;;13.77;76.52;100821.84;5221545;28;20434;-84
2023/05/11 04:27:33;;;;;;;2.78;1.77;;;;;;;13.80;76.53;100830.50;5207519;28;20038;-84
2023/05/11 04:30:23;;;;;;;0.82;0.82;;;;;;;13.81;75.84;100826.06;5220908;28;20654;-84
2023/05/11 04:33:14;;;;;;;0.85;0.85;;;;;;;13.84;75.56;100832.06;5211010;28;20044;-85
2023/05/11 04:36:05;;;;;;;2.13;1.95;;;;;;;13.82;76.67;100836.56;5210007;28;20178;-86
2023/05/11 04:38:56;;;;;;;3.35;2.10;;;;;;;13.81;76.53;100834.84;5216598;28;20982;-84
2023/05/11 04:41:47;;;;;;;2.25;2.08;;;;;;;13.83;76.48;100835.66;5199783;28;23075;-84
2023/05/11 04:44:38;;;;;;;2.47;1.98;;;;;;;13.73;78.95;100841.31;5199614;28;20029;-82
2023/05/11 04:47:29;;;;;;;3.85;1.63;;;;;;;13.60;80.56;100833.91;5217298;28;20075;-85
2023/05/11 04:50:19;;;;;;;1.92;1.83;;;;;;;13.75;78.89;100837.72;5212528;28;20155;-85
2023/05/11 04:53:10;;;;;;;3.05;1.83;;;;;;;13.79;77.07;100839.31;5213212;28;20047;-85
2023/05/11 04:56:01;;;;;;;4.25;3.22;;;;;;;13.84;76.61;100841.78;5203127;28;20605;-84
2023/05/11 04:58:52;;;;;;;1.75;1.65;;;;;;;13.82;76.32;100843.59;5206919;28;20037;-84
2023/05/11 05:01:42;;;;;;;3.03;2.58;;;;;;;13.84;77.27;100842.63;5205091;28;20033;-85
2023/05/11 05:04:33;;;;;;;1.40;1.30;;;;;;;13.89;76.39;100839.81;5214677;28;20025;-85
2023/05/11 05:07:24;;;;;;;1.42;1.33;;;;;;;13.89;77.86;100849.50;5200368;28;20116;-85
2023/05/11 05:10:15;;;;;;;1.80;1.70;;;;;;;13.88;79.31;100853.06;5192328;28;20049;-85
2023/05/11 05:13:05;;;;;;;31.52;3.92;;;;;;;13.99;77.27;100850.88;5214889;28;20048;-84
2023/05/11 05:15:56;;;;;;;2.08;1.98;;;;;;;13.67;81.98;100855.63;5212947;28;20113;-85
2023/05/11 05:18:47;;;;;;;3.47;1.65;;;;;;;13.64;82.93;100861.00;5214220;28;20707;-84
2023/05/11 05:21:39;;;;;;;3.17;1.75;;;;;;;13.78;81.32;100863.97;5203225;28;20381;-85
2023/05/11 05:24:30;;;;;;;2.13;1.70;;;;;;;13.84;80.41;100863.72;5216160;28;20432;-85
2023/05/11 05:27:20;;;;;;;3.13;1.95;;;;;;;13.93;80.01;100874.84;5207730;28;20052;-84
2023/05/11 05:30:11;;;;;;;2.03;1.85;;;;;;;14.01;78.62;100870.13;5212672;28;20428;-85
2023/05/11 05:33:02;;;;;;;1.85;1.75;;;;;;;14.06;79.40;100881.38;5215952;28;20357;-85
2023/05/11 05:35:53;;;;;;;3.65;1.90;;;;;;;13.89;80.62;100878.53;5218473;28;20472;-85
2023/05/11 05:38:44;;;;;;;2.05;1.95;;;;;;;13.98;80.23;100884.28;5206929;28;20041;-85
2023/05/11 05:41:35;;;;;;;6.88;2.88;;;;;;;13.98;81.35;100883.44;5220355;28;20136;-85
2023/05/11 05:44:26;;;;;;;2.92;1.88;;;;;;;14.07;80.30;100885.75;5213279;28;20028;-85
2023/05/11 05:47:17;;;;;;;5.15;3.00;;;;;;;13.87;82.26;100886.50;5195899;28;20896;-84
2023/05/11 05:50:08;;;;;;;2.58;2.38;;;;;;;13.93;81.28;100891.53;5194422;28;20067;-84
2023/05/11 05:52:58;;;;;;;3.50;2.10;;;;;;;13.92;81.36;100891.59;5197412;28;20040;-84
2023/05/11 05:55:49;;;;;;;2.58;2.20;;;;;;;14.16;79.37;100895.94;5212313;28;20052;-84
2023/05/11 05:58:40;;;;;;;1.73;1.63;;;;;;;14.21;78.73;100897.50;5198103;28;20093;-84
2023/05/11 06:01:31;;;;;;;3.28;1.98;;;;;;;14.25;78.65;100893.84;5192936;28;20033;-85
2023/05/11 06:04:22;;;;;;;1.77;1.67;;;;;;;14.19;79.64;100891.44;5211669;28;20029;-84
2023/05/11 06:07:13;;;;;;;2.35;1.90;;;;;;;14.02;80.38;100898.22;5210298;28;20067;-84
2023/05/11 06:10:04;;;;;;;1.67;1.08;;;;;;;14.18;79.34;100898.50;5197790;28;20048;-84
2023/05/11 06:12:55;;;;;;;2.20;2.00;;;;;;;14.32;78.41;100896.16;5223939;28;20047;-83
2023/05/11 06:15:46;;;;;;;0.90;0.90;;;;;;;14.43;77.31;100901.00;5224010;28;20037;-83
2023/05/11 06:18:36;;;;;;;1.88;1.77;;;;;;;14.48;77.33;100901.69;5195964;28;20043;-83
2023/05/11 06:21:27;;;;;;;1.90;1.75;;;;;;;14.26;79.41;100899.06;5195265;28;20041;-83
2023/05/11 06:24:18;;;;;;;10.65;1.75;;;;;;;14.28;79.33;100899.00;5226830;28;20025;-83
2023/05/11 06:27:09;;;;;;;2.70;1.92;;;;;;;14.11;79.70;100907.56;5222221;28;20025;-82
2023/05/11 06:30:00;;;;;;;2.13;1.92;;;;;;;14.19;79.42;100900.22;5209622;28;20056;-83
2023/05/11 06:32:50;;;;;;;2.47;2.15;;;;;;;14.31;78.54;100904.16;5213445;28;20049;-84
2023/05/11 06:35:41;;;;;;;4.30;2.95;;;;;;;14.33;78.50;100899.69;5193356;28;20041;-84
2023/05/11 06:38:32;;;;;;;2.53;2.35;;;;;;;14.37;78.51;100905.69;5210156;28;20021;-84
2023/05/11 06:41:23;;;;;;;0.98;0.95;;;;;;;14.39;78.01;100909.97;5192479;28;20143;-85
2023/05/11 06:44:14;;;;;;;1.88;1.35;;;;;;;14.45;76.77;100912.38;5222800;28;20030;-85
2023/05/11 06:47:06;;;;;;;2.55;1.65;;;;;;;14.44;77.65;100909.81;5196144;28;20086;-81
2023/05/11 06:49:57;;;;;;;1.50;1.40;;;;;;;14.57;76.72;100912.81;5202865;28;20057;-83
2023/05/11 06:52:48;;;;;;;1.27;1.23;;;;;;;14.55;76.90;100914.66;5228598;28;20110;-83
2023/05/11 06:55:39;;;;;;;1.45;1.35;;;;;;;14.60;76.42;100915.31;5193433;28;20037;-83
2023/05/11 06:58:30;;;;;;;2.22;2.03;;;;;;;14.61;76.27;100907.34;5197420;28;20041;-83
2023/05/11 07:01:21;;;;;;;1.10;1.00;;;;;;;14.66;76.41;100908.91;5212314;28;20060;-84
2023/05/11 07:04:11;;;;;;;6.13;2.20;;;;;;;14.68;76.07;100907.13;5222769;28;20032;-84
2023/05/11 07:07:02;;;;;;;7.10;1.88;;;;;;;14.67;76.36;100908.88;5214583;28;20083;-84
2023/05/11 07:09:53;;;;;;;2.92;0.98;;;;;;;14.67;76.32;100906.25;5231408;28;20174;-84
2023/05/11 07:12:44;;;;;;;2.75;1.80;;;;;;;14.71;75.81;100907.00;5245575;28;20036;-84
2023/05/11 07:15:34;;;;;;;3.08;1.48;;;;;;;14.78;75.89;100908.47;5228788;28;20029;-84
2023/05/11 07:18:25;;;;;;;1.08;1.00;;;;;;;14.60;76.83;100907.38;5215208;28;20127;-84
2023/05/11 07:21:16;;;;;;;2.20;2.03;;;;;;;14.78;75.61;100905.81;5217684;28;20100;-83
2023/05/11 07:24:07;;;;;;;1.50;1.40;;;;;;;14.63;76.66;100909.91;5198700;28;20095;-84
2023/05/11 07:26:58;;;;;;;2.00;1.90;;;;;;;14.45;77.56;100912.38;5196239;28;20048;-84
2023/05/11 07:29:48;;;;;;;1.42;1.33;;;;;;;14.70;76.02;100916.69;5220517;28;20247;-84
2023/05/11 07:32:39;;;;;;;1.13;1.13;;;;;;;14.53;77.67;100916.47;5216000;28;20044;-82
2023/05/11 07:35:30;;;;;;;1.95;1.55;;;;;;;14.62;76.99;100909.06;5208427;28;20042;-83
2023/05/11 07:38:21;;;;;;;2.03;1.88;;;;;;;14.70;76.47;100921.13;5213694;28;20067;-83
2023/05/11 07:41:11;;;;;;;2.25;2.05;;;;;;;14.38;78.16;100916.19;5216009;28;20129;-85
2023/05/11 07:44:02;;;;;;;3.28;2.97;;;;;;;14.63;76.90;100918.69;5215583;28;20048;-83
2023/05/11 07:46:53;;;;;;;2.83;2.63;;;;;;;14.67;77.29;100924.72;5233775;28;20128;-84
2023/05/11 07:49:46;;;;;;;1.85;1.73;;;;;;;14.56;77.93;100919.00;5211994;28;20022;-84
2023/05/11 07:52:37;;;;;;;5.55;3.22;;;;;;;14.67;77.54;100922.09;5213435;28;20036;-83
2023/05/11 07:55:29;;;;;;;3.95;1.98;;;;;;;14.86;76.81;100921.31;5204842;28;20051;-85
2023/05/11 07:58:20;;;;;;;2.80;2.35;;;;;;;14.81;77.56;100925.97;5216494;28;20036;-84
2023/05/11 08:01:10;;;;;;;2.92;2.63;;;;;;;14.89;76.94;100924.69;5195026;28;20058;-84
2023/05/11 08:04:01;;;;;;;1.88;1.77;;;;;;;15.01;76.79;100920.69;5207562;28;20052;-84
2023/05/11 08:06:52;;;;;;;4.00;3.60;;;;;;;15.04;76.81;100912.63;5220574;28;20052;-84
2023/05/11 08:09:43;;;;;;;1.65;1.55;;;;;;;14.91;77.36;100911.44;5228397;28;20083;-84
2023/05/11 08:12:35;;;;;;;3.17;2.28;;;;;;;15.08;76.96;100916.84;5200626;28;20604;-85
2023/05/11 08:15:26;;;;;;;3.22;2.45;;;;;;;15.13;76.95;100918.44;5212063;28;20036;-84
2023/05/11 08:18:17;;;;;;;2.05;1.95;;;;;;;15.19;76.42;100919.06;5227017;28;20037;-84
2023/05/11 08:21:08;;;;;;;6.05;2.40;;;;;;;15.17;75.96;100914.72;5212058;28;20041;-83
2023/05/11 08:23:59;;;;;;;2.03;1.83;;;;;;;15.41;75.51;100920.75;5210983;28;20057;-84
2023/05/11 08:26:50;;;;;;;3.70;2.20;;;;;;;15.20;75.51;100917.25;5205546;28;20441;-85
2023/05/11 08:29:40;;;;;;;1.65;1.55;;;;;;;15.42;75.49;100917.19;5214640;28;20036;-84
2023/05/11 08:32:31;;;;;;;5.68;3.78;;;;;;;15.40;75.02;100919.03;5208990;28;20025;-84
2023/05/11 08:35:23;;;;;;;1.45;1.38;;;;;;;15.38;74.56;100926.16;5221617;28;20048;-84
2023/05/11 08:38:14;;;;;;;1.83;1.70;;;;;;;15.58;74.53;100930.56;5209215;28;20029;-84
2023/05/11 08:41:06;;;;;;;1.73;1.55;;;;;;;15.55;74.41;100925.41;5204183;28;20037;-84
2023/05/11 08:43:59;;;;;;;2.00;1.63;;;;;;;15.54;73.95;100921.06;5202148;28;20680;-84
2023/05/11 08:46:52;;;;;;;2.05;1.73;;;;;;;15.61;73.50;100924.28;5226159;28;20045;-84
2023/05/11 08:49:43;;;;;;;1.97;1.77;;;;;;;15.49;73.80;100920.41;5208710;28;20599;-84
2023/05/11 08:52:34;;;;;;;2.95;2.70;;;;;;;15.48;73.03;100923.97;5179099;28;20040;-84
2023/05/11 08:55:25;;;;;;;2.97;1.75;;;;;;;15.57;73.34;100932.34;5195905;28;20045;-85
2023/05/11 08:58:21;;;;;;;1.90;1.80;;;;;;;15.64;72.79;100940.00;5209845;28;20119;-85
2023/05/11 09:01:13;;;;;;;2.13;1.92;;;;;;;15.69;72.52;100933.59;5218422;28;20043;-83
2023/05/11 09:04:05;;;;;;;5.25;1.50;;;;;;;15.78;72.79;100936.75;5201045;28;20175;-83
2023/05/11 09:06:57;;;;;;;2.03;1.85;;;;;;;15.89;72.41;100931.88;5199977;28;20056;-84
2023/05/11 09:09:47;;;;;;;2.63;2.35;;;;;;;15.84;72.60;100932.06;5212974;28;20033;-84
2023/05/11 09:12:38;;;;;;;7.28;3.15;;;;;;;15.81;71.13;100933.97;5196256;28;20538;-84
2023/05/11 09:15:29;;;;;;;7.03;3.03;;;;;;;15.91;71.93;100932.63;5199534;28;20651;-84
2023/05/11 09:18:20;;;;;;;4.47;3.13;;;;;;;15.98;72.28;100928.78;5181813;28;20052;-83
2023/05/11 09:21:11;;;;;;;3.20;2.05;;;;;;;16.21;71.72;100929.50;5182182;28;20045;-84
2023/05/11 09:24:02;;;;;;;2.85;2.65;;;;;;;16.00;71.03;100932.22;5178982;28;20033;-84
2023/05/11 09:27:08;;;;;;;4.03;2.60;;;;;;;15.96;70.90;100928.00;5208621;28;20055;-84
2023/05/11 09:30:12;;;;;;;4.65;2.00;;;;;;;15.80;71.36;100921.66;5193847;28;20389;-83
2023/05/11 09:33:03;;;;;;;2.15;1.95;;;;;;;15.87;71.40;100920.47;5186859;28;20037;-84
2023/05/11 09:35:54;;;;;;;2.72;2.45;;;;;;;15.92;71.28;100921.13;5197896;28;20029;-84
2023/05/11 09:38:45;;;;;;;1.23;1.15;;;;;;;16.29;70.19;100927.34;5198474;28;20060;-84
2023/05/11 09:41:36;;;;;;;1.63;1.52;;;;;;;16.30;70.41;100918.47;5217786;28;20033;-83
2023/05/11 09:44:30;;;;;;;5.32;1.88;;;;;;;16.23;70.34;100919.69;5198303;28;20336;-83
2023/05/11 09:47:21;;;;;;;1.17;1.05;;;;;;;16.13;69.92;100927.19;5210809;28;20068;-84
2023/05/11 09:50:16;;;;;;;3.40;1.75;;;;;;;15.66;69.68;100936.34;5193498;28;20044;-84
2023/05/11 09:53:07;;;;;;;2.97;2.63;;;;;;;16.19;69.81;100931.34;5195211;28;20041;-84
2023/05/11 09:55:58;;;;;;;5.45;2.50;;;;;;;16.32;68.49;100924.53;5183669;28;20041;-83
2023/05/11 09:58:56;;;;;;;1.90;1.80;;;;;;;15.96;68.05;100930.66;5195096;28;20696;-84
2023/05/11 10:01:46;;;;;;;2.13;1.63;;;;;;;16.20;68.43;100927.78;5211423;28;20116;-82
2023/05/11 10:04:37;;;;;;;1.05;1.05;;;;;;;16.38;68.65;100926.03;5194206;28;20045;-85
2023/05/11 10:07:33;;;;;;;4.80;2.13;;;;;;;16.38;69.15;100925.19;5195333;28;20565;-84
2023/05/11 10:10:26;;;;;;;5.43;3.58;;;;;;;16.46;68.99;100923.03;5195843;28;20040;-84
2023/05/11 10:13:17;;;;;;;;;;;;;;;16.57;69.45;100922.50;5230180;28;20052;-83
2023/05/11 10:16:10;;;;;;;1.77;1.63;;;;;;;16.57;69.39;100923.34;5219662;28;19985;-83
2023/05/11 10:19:01;;;;;;;3.60;1.38;;;;;;;16.68;68.84;100917.53;5189276;28;20036;-82
2023/05/11 10:21:54;;;;;;;0.82;0.82;;;;;;;16.52;67.65;100920.06;5180429;28;20038;-84
2023/05/11 10:24:45;;;;;;;0.70;0.70;;;;;;;16.56;66.29;100919.00;5199430;28;20042;-83
2023/05/11 10:27:36;;;;;;;2.03;1.52;;;;;;;16.59;67.68;100920.63;5213448;28;20065;-84
2023/05/11 10:30:28;;;;;;;1.23;1.17;;;;;;;16.56;66.97;100918.13;5206336;28;20131;-84
2023/05/11 10:33:19;;;;;;;5.45;1.10;;;;;;;16.72;67.19;100918.25;5216543;28;20029;-84
2023/05/11 10:36:10;;;;;;;0.95;0.95;;;;;;;16.40;66.31;100920.69;5197617;28;20044;-84
2023/05/11 10:39:01;;;;;;;2.75;2.47;;;;;;;16.59;67.36;100921.47;5215242;28;20111;-82
2023/05/11 10:42:05;;;;;;;1.75;1.65;;;;;;;16.68;66.96;100922.84;5207609;28;20083;-84
2023/05/11 10:45:30;;;;;;;1.98;1.35;;;;;;;16.52;67.49;100922.72;5214606;28;20041;-83
2023/05/11 10:48:39;;;;;;;;;;;;;;;16.56;67.20;100919.00;5207867;28;20033;-84
2023/05/11 10:51:39;;;;;;;1.38;1.27;;;;;;;16.80;66.79;100910.75;5202574;28;20028;-84
2023/05/11 10:54:39;;;;;;;0.80;0.80;;;;;;;16.83;66.62;100911.47;5216467;28;20582;-84
2023/05/11 10:57:46;;;;;;;2.00;1.80;;;;;;;16.85;67.20;100914.03;5212051;28;20040;-84
2023/05/11 11:00:55;;;;;;;6.18;2.45;;;;;;;16.88;67.24;100910.34;5215465;28;20071;-84
2023/05/11 11:04:02;;;;;;;1.10;1.10;;;;;;;16.86;67.11;100918.41;5214904;28;20124;-84
2023/05/11 11:07:05;;;;;;;1.13;1.10;;;;;;;16.68;68.18;100912.22;5211580;28;20056;-84
2023/05/11 11:09:56;;;;;;;;;;;;;;;16.71;68.58;100911.22;5218510;28;20408;-84
2023/05/11 11:13:02;;;;;;;1.33;1.23;;;;;;;16.60;68.16;100909.13;5230736;28;19920;-83
2023/05/11 11:15:53;;;;;;;1.55;1.42;;;;;;;16.72;68.47;100907.63;5212411;28;20037;-83
2023/05/11 11:18:44;;;;;;;1.60;0.80;;;;;;;16.80;68.74;100905.47;5213336;28;20044;-83
2023/05/11 11:21:43;;;;;;;1.20;1.10;;;;;;;16.80;68.43;100911.59;5200316;28;20038;-83
2023/05/11 11:24:37;;;;;;;1.27;1.17;;;;;;;16.72;68.11;100913.78;5190590;28;20045;-83
2023/05/11 11:27:40;;;;;;;3.78;2.70;;;;;;;16.84;68.07;100907.88;5211438;28;20671;-83
2023/05/11 11:30:31;;;;;;;2.35;1.42;;;;;;;16.95;68.19;100902.06;5209461;28;20060;-83
2023/05/11 11:33:22;;;;;;;1.38;1.20;;;;;;;16.83;68.21;100906.16;5217018;28;20033;-84
2023/05/11 11:36:15;;;;;;;1.75;1.58;;;;;;;16.94;67.45;100903.00;5208632;28;20053;-82
2023/05/11 11:39:06;;;;;;;1.90;1.77;;;;;;;17.04;68.21;100905.19;5221875;28;20068;-83
2023/05/11 11:42:06;;;;;;;0.73;0.70;;;;;;;17.10;67.87;100907.50;5224424;28;20037;-86
2023/05/11 11:45:25;;;;;;;2.13;1.98;;;;;;;17.16;66.83;100912.47;5216090;28;20048;-85
2023/05/11 11:48:41;;;;;;;1.75;1.20;;;;;;;17.35;66.62;100899.16;5210420;28;20048;-85
2023/05/11 11:51:33;;;;;;;1.40;1.30;;;;;;;17.11;65.93;100901.28;5227176;28;20029;-87
2023/05/11 11:55:00;;;;;;;2.58;1.55;;;;;;;17.30;66.41;100895.88;5243088;28;20032;-86
2023/05/11 11:57:51;;;;;;;0.70;0.70;;;;;;;17.25;66.11;100901.41;5230263;28;20585;-85
2023/05/11 12:00:46;;;;;;;2.67;2.47;;;;;;;17.28;65.59;100898.59;5221911;28;20040;-87
2023/05/11 12:03:38;;;;;;;1.67;1.58;;;;;;;17.31;65.80;100897.59;5214761;28;20048;-86
2023/05/11 12:06:38;;;;;;;2.72;2.25;;;;;;;17.30;65.30;100902.03;5234138;28;20033;-86
2023/05/11 12:09:29;;;;;;;1.33;1.13;;;;;;;17.50;65.64;100899.25;5227985;28;20103;-84
2023/05/11 12:12:20;;;;;;;1.60;1.50;;;;;;;17.43;65.39;100898.72;5206175;28;20044;-83
2023/05/11 12:15:23;;;;;;;2.10;1.73;;;;;;;17.55;65.17;100898.09;5211699;28;20047;-85
2023/05/11 12:18:20;;;;;;;1.45;1.35;;;;;;;17.57;65.19;100890.88;5187380;28;20038;-85
2023/05/11 12:21:21;;;;;;;1.75;1.58;;;;;;;17.60;64.35;100901.34;5216641;28;20090;-85
2023/05/11 12:24:12;;;;;;;1.48;1.10;;;;;;;17.52;64.84;100894.75;5204206;28;20029;-86
2023/05/11 12:27:03;;;;;;;4.57;1.92;;;;;;;17.64;64.17;100891.41;5190777;28;20535;-85
2023/05/11 12:29:55;;;;;;;1.20;1.10;;;;;;;17.73;64.54;100890.03;5211222;28;20029;-84
2023/05/11 12:32:46;;;;;;;18.50;1.60;;;;;;;17.66;65.10;100883.38;5199571;28;20030;-83
2023/05/11 12:35:39;;;;;;;2.40;1.08;;;;;;;17.82;64.51;100886.03;5193347;28;20106;-83
2023/05/11 12:38:29;;;;;;;0.50;0.50;;;;;;;17.79;64.38;100873.81;5221340;28;20037;-83
2023/05/11 12:41:22;;;;;;;1.73;1.63;;;;;;;17.86;64.16;100880.50;5186586;28;20041;-83
2023/05/11 12:44:14;;;;;;;1.25;1.15;;;;;;;17.89;63.73;100885.59;5191420;28;20022;-84
2023/05/11 12:47:05;;;;;;;1.58;1.48;;;;;;;17.98;63.55;100867.47;5198574;28;20048;-85
2023/05/11 12:49:56;;;;;;;2.55;2.35;;;;;;;17.79;62.83;100876.47;5182745;28;22341;-84
2023/05/11 12:52:50;;;;;;;2.85;2.17;;;;;;;17.89;62.21;100871.50;5190582;28;20038;-83
2023/05/11 12:55:41;;;;;;;2.10;1.85;;;;;;;17.84;62.09;100868.25;5203087;28;20037;-84
2023/05/11 12:58:39;;;;;;;1.00;0.98;;;;;;;18.01;61.72;100868.19;5226934;28;20040;-85
2023/05/11 13:01:30;;;;;;;0.73;0.73;;;;;;;18.11;62.42;100872.97;5213368;28;20045;-84
2023/05/11 13:04:28;;;;;;;0.93;0.93;;;;;;;18.25;61.63;100867.75;5201509;28;20017;-84
2023/05/11 13:07:24;;;;;;;1.00;0.98;;;;;;;18.24;61.25;100874.00;5200191;28;20060;-83
2023/05/11 13:10:14;;;;;;;1.38;1.20;;;;;;;18.42;60.43;100865.94;5217723;28;20661;-85
2023/05/11 13:13:05;;;;;;;0.52;0.52;;;;;;;18.56;60.47;100858.00;5218839;28;20116;-85
2023/05/11 13:15:58;;;;;;;2.53;1.48;;;;;;;18.43;61.05;100860.50;5225189;28;20298;-84
2023/05/11 13:19:03;;;;;;;2.42;2.15;;;;;;;18.63;60.66;100855.84;5220770;28;20040;-83
2023/05/11 13:21:55;;;;;;;1.58;1.50;;;;;;;18.60;60.82;100856.00;5209709;28;20115;-84
2023/05/11 13:24:45;;;;;;;0.88;0.88;;;;;;;18.80;61.26;100861.00;5206295;28;20037;-84
2023/05/11 13:27:37;;;;;;;0.43;0.43;;;;;;;18.78;59.91;100852.28;5220472;28;20036;-85